Ilchester, United Kingdom
Current Conditions -  °F | °C
As of 3:50 AM on Monday 24 Nov 2014 (Local Time) from EGDY Reporting Station
Light Fog Light Fog  
Wind Chill: 28°   Ceiling: 200
Heat Index: 28°   Visibility: 0.15mi
Dew Point: 27°   Wind: 0mph
Humidity: 93%   Direction: NA
Pressure: 30.24"   Gusts: NA
Location:  51.01°N, 2.68°W
Report Text: EGDY 240350Z 00000KT 0250 BCFG FEW000 BKN002 M02/M03 Q1024 RED
Loading
Personal Weather Stations






























Interactive Weather Map New forecast layout! Learn more

10-Day Weather Forecast

Advertisements
Track Severe Weather on mobile